Time;durP1;ratioP1;P1;durP2;ratioP2;P2;SDS_P1;SDS_P2;PMS_P1;PMS_P2;Temp;Humidity;BMP_temperature;BMP_pressure;BME280_temperature;BME280_humidity;BME280_pressure;Samples;Min_cycle;Max_cycle;Signal;HPM_P1;HPM_P2
2021/10/02 00:36:37;;;;;;;;;;;;;;;;;;2098885;28;1048;-67
2021/10/02 00:37:52;;;;;;;;;;;;;;;;;;2101616;28;1457;-68
2021/10/02 00:45:25;;;;;;;;;;;;;;;;;;2101350;27;1030;-68
2021/10/02 00:46:26;;;;;;;;;;;;;;;;;;2102381;28;3307;-68
2021/10/02 00:47:27;;;;;;;;;;;;;;;;;;2102611;28;1769;-67
2021/10/02 00:48:27;;;;;;;;;;;;;;;;;;2098125;28;5196;-67
2021/10/02 00:49:28;;;;;;;;;;;;;;;;;;2102738;27;1295;-68
2021/10/02 00:50:28;;;;;;;;;;;;;;;;;;2099038;27;2219;-67
2021/10/02 00:51:29;;;;;;;;;;;;;;;;;;2101678;28;4351;-68
2021/10/02 00:52:29;;;;;;;;;;;;;;;;;;2102482;28;2378;-67
2021/10/02 00:53:31;;;;;;;;;;;;;;;;;;2103076;27;1198;-67
2021/10/02 00:54:31;;;;;;;;;;;;;;;;;;2102063;28;3847;-68
2021/10/02 00:55:32;;;;;;;;;;;;;;;;;;2103083;27;1025;-68
2021/10/02 00:56:32;;;;;;;;;;;;;;;;;;2102800;27;1069;-67
2021/10/02 00:57:33;;;;;;;;;;;;;;;;;;2100199;27;5051;-67
2021/10/02 00:58:33;;;;;;;;;;;;;;;;;;2101741;28;3489;-67
2021/10/02 00:59:34;;;;;;;;;;;;;;;;;;2101404;27;4629;-68
2021/10/02 01:00:34;;;;;;;;;;;;;;;;;;2102921;28;4204;-68
2021/10/02 01:01:36;;;;;;;;;;;;;;;;;;2103192;28;4624;-68
2021/10/02 01:02:36;;;;;;;;;;;;;;;;;;2102637;28;4369;-68
2021/10/02 01:03:38;;;;;;;;;;;;;;;;;;2102949;27;4731;-68
2021/10/02 01:04:38;;;;;;;;;;;;;;;;;;2102872;28;4719;-67
2021/10/02 01:05:39;;;;;;;;;;;;;;;;;;2102957;28;2512;-68
2021/10/02 01:06:45;;;;;;;;;;;;;;;;;;2099736;27;4816;-68
2021/10/02 01:07:46;;;;;;;;;;;;;;;;;;2103701;27;5066;-68
2021/10/02 01:08:46;;;;;;;;;;;;;;;;;;2099286;28;3549;-68
2021/10/02 01:09:47;;;;;;;;;;;;;;;;;;2098468;27;1289;-68
2021/10/02 01:10:48;;;;;;;;;;;;;;;;;;2098403;28;1450;-68
2021/10/02 01:11:49;;;;;;;;;;;;;;;;;;2099196;27;4499;-67
2021/10/02 01:12:49;;;;;;;;;;;;;;;;;;2099131;28;4422;-67
2021/10/02 01:13:50;;;;;;;;;;;;;;;;;;2098257;28;4396;-68
2021/10/02 01:14:50;;;;;;;;;;;;;;;;;;2098809;27;4152;-68
2021/10/02 01:15:51;;;;;;;;;;;;;;;;;;2099312;27;2440;-68
2021/10/02 01:16:51;;;;;;;;;;;;;;;;;;2099153;28;4798;-68
2021/10/02 01:17:53;;;;;;;;;;;;;;;;;;2099276;27;3845;-67
2021/10/02 01:18:53;;;;;;;;;;;;;;;;;;2097978;28;4438;-67
2021/10/02 01:19:54;;;;;;;;;;;;;;;;;;2098344;28;3907;-68
2021/10/02 01:20:54;;;;;;;;;;;;;;;;;;2098984;27;4448;-68
2021/10/02 01:21:55;;;;;;;;;;;;;;;;;;2098963;27;3800;-68
2021/10/02 01:22:55;;;;;;;;;;;;;;;;;;2098279;28;1784;-68
2021/10/02 01:23:57;;;;;;;;;;;;;;;;;;2098428;28;4423;-67
2021/10/02 01:24:57;;;;;;;;;;;;;;;;;;2098428;28;3832;-68
2021/10/02 01:25:58;;;;;;;;;;;;;;;;;;2097635;28;4644;-68
2021/10/02 01:26:58;;;;;;;;;;;;;;;;;;2098334;28;2468;-67
2021/10/02 01:27:59;;;;;;;;;;;;;;;;;;2098791;27;4883;-67
2021/10/02 01:28:59;;;;;;;;;;;;;;;;;;2097365;27;4552;-67
2021/10/02 01:30:03;;;;;;;;;;;;;;;;;;2098155;28;4827;-68
2021/10/02 01:31:07;;;;;;;;;;;;;;;;;;2099185;28;4732;-68
2021/10/02 01:32:11;;;;;;;;;;;;;;;;;;2098924;27;1229;-68
2021/10/02 01:33:19;;;;;;;;;;;;;;;;;;2100207;27;5006;-68
2021/10/02 01:34:23;;;;;;;;;;;;;;;;;;2098995;28;4510;-68
2021/10/02 01:35:29;;;;;;;;;;;;;;;;;;2098887;27;4613;-68
2021/10/02 01:36:41;;;;;;;;;;;;;;;;;;2098955;27;4736;-67
2021/10/02 01:38:01;;;;;;;;;;;;;;;;;;2099447;28;1219;-68
2021/10/02 01:47:11;;;;;;;;;;;;;;;;;;2100148;27;1060;-68
2021/10/02 01:48:13;;;;;;;;;;;;;;;;;;2099289;28;3226;-67
2021/10/02 01:49:13;;;;;;;;;;;;;;;;;;2097499;28;5660;-68
2021/10/02 01:50:14;;;;;;;;;;;;;;;;;;2098074;27;3411;-68
2021/10/02 01:51:14;;;;;;;;;;;;;;;;;;2098207;27;4802;-68
2021/10/02 01:52:17;;;;;;;;;;;;;;;;;;2098971;27;3781;-69
2021/10/02 01:53:17;;;;;;;;;;;;;;;;;;2099105;28;4070;-67
2021/10/02 01:54:18;;;;;;;;;;;;;;;;;;2099385;28;3433;-68
2021/10/02 01:55:18;;;;;;;;;;;;;;;;;;2098642;27;4037;-68
2021/10/02 01:56:20;;;;;;;;;;;;;;;;;;2098780;27;2601;-67
2021/10/02 01:57:21;;;;;;;;;;;;;;;;;;2098442;27;5196;-68
2021/10/02 01:58:21;;;;;;;;;;;;;;;;;;2098647;28;2616;-68
2021/10/02 01:59:22;;;;;;;;;;;;;;;;;;2098440;27;4781;-67
2021/10/02 02:00:22;;;;;;;;;;;;;;;;;;2098335;28;4948;-68
2021/10/02 02:01:23;;;;;;;;;;;;;;;;;;2098833;28;4477;-68
2021/10/02 02:02:23;;;;;;;;;;;;;;;;;;2099073;28;5134;-68
2021/10/02 02:03:24;;;;;;;;;;;;;;;;;;2098217;27;3336;-69
2021/10/02 02:04:24;;;;;;;;;;;;;;;;;;2099298;28;2923;-68
2021/10/02 02:05:25;;;;;;;;;;;;;;;;;;2098188;28;4085;-67
2021/10/02 02:06:25;;;;;;;;;;;;;;;;;;2098716;27;5154;-67
2021/10/02 02:07:27;;;;;;;;;;;;;;;;;;2099054;28;4674;-68
2021/10/02 02:08:28;;;;;;;;;;;;;;;;;;2098071;28;4336;-68
2021/10/02 02:09:33;;;;;;;;;;;;;;;;;;2099208;28;1345;-66
2021/10/02 02:10:33;;;;;;;;;;;;;;;;;;2099074;27;1205;-68
2021/10/02 02:11:34;;;;;;;;;;;;;;;;;;2098660;28;4201;-68
2021/10/02 02:12:35;;;;;;;;;;;;;;;;;;2100127;27;3862;-67
2021/10/02 02:13:36;;;;;;;;;;;;;;;;;;2100152;27;1134;-68
2021/10/02 02:14:36;;;;;;;;;;;;;;;;;;2098809;27;4008;-66
2021/10/02 02:15:37;;;;;;;;;;;;;;;;;;2099699;27;1034;-67
2021/10/02 02:16:37;;;;;;;;;;;;;;;;;;2099509;28;4860;-68
2021/10/02 02:17:38;;;;;;;;;;;;;;;;;;2100170;27;4200;-68
2021/10/02 02:18:38;;;;;;;;;;;;;;;;;;2099054;28;4994;-68
2021/10/02 02:19:39;;;;;;;;;;;;;;;;;;2099953;27;1350;-68
2021/10/02 02:20:39;;;;;;;;;;;;;;;;;;2099291;28;4087;-68
2021/10/02 02:21:40;;;;;;;;;;;;;;;;;;2098748;28;4865;-68
2021/10/02 02:22:40;;;;;;;;;;;;;;;;;;2098893;28;4067;-68
2021/10/02 02:23:42;;;;;;;;;;;;;;;;;;2100903;27;1561;-67
2021/10/02 02:24:42;;;;;;;;;;;;;;;;;;2098391;27;4612;-68
2021/10/02 02:25:43;;;;;;;;;;;;;;;;;;2097733;27;4497;-68
2021/10/02 02:26:43;;;;;;;;;;;;;;;;;;2098629;28;4742;-67
2021/10/02 02:27:44;;;;;;;;;;;;;;;;;;2099831;27;2716;-67
2021/10/02 02:28:44;;;;;;;;;;;;;;;;;;2096509;28;3784;-67
2021/10/02 02:29:45;;;;;;;;;;;;;;;;;;2100741;28;1298;-66
2021/10/02 02:30:46;;;;;;;;;;;;;;;;;;2099465;27;4671;-67
2021/10/02 02:31:47;;;;;;;;;;;;;;;;;;2101012;27;4436;-68
2021/10/02 02:32:49;;;;;;;;;;;;;;;;;;2100975;28;1351;-67
2021/10/02 02:33:50;;;;;;;;;;;;;;;;;;2098476;27;4645;-68
2021/10/02 02:34:53;;;;;;;;;;;;;;;;;;2099261;28;4526;-68
2021/10/02 02:35:53;;;;;;;;;;;;;;;;;;2098930;27;2502;-68
2021/10/02 02:36:54;;;;;;;;;;;;;;;;;;2097736;28;4680;-69
2021/10/02 02:37:55;;;;;;;;;;;;;;;;;;2098916;27;1069;-67
2021/10/02 02:38:56;;;;;;;;;;;;;;;;;;2098007;28;4312;-69
2021/10/02 02:39:56;;;;;;;;;;;;;;;;;;2097365;28;3692;-69
2021/10/02 02:40:57;;;;;;;;;;;;;;;;;;2098576;28;3570;-68
2021/10/02 02:41:57;;;;;;;;;;;;;;;;;;2097802;27;4069;-68
2021/10/02 02:42:58;;;;;;;;;;;;;;;;;;2098448;27;4316;-68
2021/10/02 02:43:58;;;;;;;;;;;;;;;;;;2096375;28;3261;-69
2021/10/02 02:44:59;;;;;;;;;;;;;;;;;;2096536;28;4711;-69
2021/10/02 02:45:59;;;;;;;;;;;;;;;;;;2098163;28;1226;-69
2021/10/02 02:47:00;;;;;;;;;;;;;;;;;;2097578;27;4521;-69
2021/10/02 02:48:01;;;;;;;;;;;;;;;;;;2097845;27;2818;-69
2021/10/02 02:49:02;;;;;;;;;;;;;;;;;;2096403;28;4634;-69
2021/10/02 02:50:02;;;;;;;;;;;;;;;;;;2098920;28;1340;-68
2021/10/02 02:51:03;;;;;;;;;;;;;;;;;;2098292;28;3110;-69
2021/10/02 02:52:03;;;;;;;;;;;;;;;;;;2099327;28;1154;-69
2021/10/02 02:53:04;;;;;;;;;;;;;;;;;;2097725;27;4705;-69
2021/10/02 02:54:08;;;;;;;;;;;;;;;;;;2098018;27;4456;-68
2021/10/02 02:55:09;;;;;;;;;;;;;;;;;;2097991;28;1091;-69
2021/10/02 02:56:10;;;;;;;;;;;;;;;;;;2098433;27;1044;-69
2021/10/02 02:57:11;;;;;;;;;;;;;;;;;;2098081;28;4833;-68
2021/10/02 02:58:11;;;;;;;;;;;;;;;;;;2096627;28;4751;-68
2021/10/02 02:59:12;;;;;;;;;;;;;;;;;;2095453;28;3966;-68
2021/10/02 03:00:13;;;;;;;;;;;;;;;;;;2098740;28;2796;-69
2021/10/02 03:01:14;;;;;;;;;;;;;;;;;;2097353;27;4648;-68
2021/10/02 03:02:14;;;;;;;;;;;;;;;;;;2097902;28;4903;-68
2021/10/02 03:03:15;;;;;;;;;;;;;;;;;;2096898;28;4695;-69
2021/10/02 03:04:15;;;;;;;;;;;;;;;;;;2098380;28;3828;-68
2021/10/02 03:05:17;;;;;;;;;;;;;;;;;;2099132;28;4517;-68
2021/10/02 03:06:18;;;;;;;;;;;;;;;;;;2097542;27;4818;-67
2021/10/02 03:07:19;;;;;;;;;;;;;;;;;;2097646;28;5462;-68
2021/10/02 03:08:19;;;;;;;;;;;;;;;;;;2096977;27;3119;-68
2021/10/02 03:09:20;;;;;;;;;;;;;;;;;;2097508;27;4534;-69
2021/10/02 03:10:20;;;;;;;;;;;;;;;;;;2098203;28;1632;-68
2021/10/02 03:11:21;;;;;;;;;;;;;;;;;;2098754;28;1334;-69
2021/10/02 03:12:21;;;;;;;;;;;;;;;;;;2098255;27;2486;-69
2021/10/02 03:13:22;;;;;;;;;;;;;;;;;;2098918;27;4192;-67
2021/10/02 03:14:23;;;;;;;;;;;;;;;;;;2097852;28;4654;-68
2021/10/02 03:15:24;;;;;;;;;;;;;;;;;;2098084;28;4733;-69
2021/10/02 03:16:24;;;;;;;;;;;;;;;;;;2098322;28;4925;-68
2021/10/02 03:17:25;;;;;;;;;;;;;;;;;;2099619;28;3496;-68
2021/10/02 03:18:25;;;;;;;;;;;;;;;;;;2097259;27;4386;-69
2021/10/02 03:19:26;;;;;;;;;;;;;;;;;;2098484;28;2747;-69
2021/10/02 03:20:29;;;;;;;;;;;;;;;;;;2098456;28;4463;-67
2021/10/02 03:21:31;;;;;;;;;;;;;;;;;;2099675;27;1294;-69
2021/10/02 03:22:32;;;;;;;;;;;;;;;;;;2099429;28;1180;-69
2021/10/02 03:23:32;;;;;;;;;;;;;;;;;;2097624;28;2325;-68
2021/10/02 03:24:33;;;;;;;;;;;;;;;;;;2097648;28;5038;-68
2021/10/02 03:25:33;;;;;;;;;;;;;;;;;;2098298;28;2743;-68
2021/10/02 03:26:34;;;;;;;;;;;;;;;;;;2098132;28;5005;-69
2021/10/02 03:27:34;;;;;;;;;;;;;;;;;;2100454;27;3297;-68
2021/10/02 03:28:35;;;;;;;;;;;;;;;;;;2098153;27;3561;-69
2021/10/02 03:29:35;;;;;;;;;;;;;;;;;;2099992;28;4305;-69
2021/10/02 03:30:37;;;;;;;;;;;;;;;;;;2099871;28;5009;-69
2021/10/02 03:31:37;;;;;;;;;;;;;;;;;;2099336;28;4274;-68
2021/10/02 03:32:39;;;;;;;;;;;;;;;;;;2100175;28;1219;-67
2021/10/02 03:33:39;;;;;;;;;;;;;;;;;;2097439;28;4676;-67
2021/10/02 03:34:40;;;;;;;;;;;;;;;;;;2099217;28;4222;-68
2021/10/02 03:35:40;;;;;;;;;;;;;;;;;;2100603;28;4237;-68
2021/10/02 03:36:41;;;;;;;;;;;;;;;;;;2099244;28;4447;-68
2021/10/02 03:37:41;;;;;;;;;;;;;;;;;;2099843;28;1083;-69
2021/10/02 03:38:43;;;;;;;;;;;;;;;;;;2097037;28;4530;-68
2021/10/02 03:39:43;;;;;;;;;;;;;;;;;;2099144;28;1228;-67
2021/10/02 03:40:44;;;;;;;;;;;;;;;;;;2098755;27;3522;-68
2021/10/02 03:42:41;;;;;;;;;;;;;;;;;;2120798;27;4689;-69
2021/10/02 03:43:41;;;;;;;;;;;;;;;;;;2115263;27;4979;-69
2021/10/02 03:44:42;;;;;;;;;;;;;;;;;;2115879;27;4839;-69
2021/10/02 03:45:42;;;;;;;;;;;;;;;;;;2117081;27;1430;-68
2021/10/02 03:46:43;;;;;;;;;;;;;;;;;;2116083;27;4508;-67
2021/10/02 03:47:43;;;;;;;;;;;;;;;;;;2118201;27;1218;-68
2021/10/02 03:48:44;;;;;;;;;;;;;;;;;;2116277;27;3446;-67
2021/10/02 03:49:44;;;;;;;;;;;;;;;;;;2113215;27;2309;-68
2021/10/02 03:50:45;;;;;;;;;;;;;;;;;;2105663;27;3816;-68
2021/10/02 03:51:46;;;;;;;;;;;;;;;;;;2106773;27;3637;-67
2021/10/02 03:52:47;;;;;;;;;;;;;;;;;;2106080;27;3899;-68
2021/10/02 03:53:47;;;;;;;;;;;;;;;;;;2104706;27;4843;-69
2021/10/02 03:54:48;;;;;;;;;;;;;;;;;;2106699;27;4186;-68
2021/10/02 03:55:48;;;;;;;;;;;;;;;;;;2105048;27;4967;-69
2021/10/02 03:56:49;;;;;;;;;;;;;;;;;;2104875;27;2254;-69
2021/10/02 03:57:49;;;;;;;;;;;;;;;;;;2105263;27;1087;-69
2021/10/02 03:58:50;;;;;;;;;;;;;;;;;;2102859;27;4803;-69
2021/10/02 03:59:50;;;;;;;;;;;;;;;;;;2105029;27;4042;-67
2021/10/02 04:00:51;;;;;;;;;;;;;;;;;;2101998;27;5161;-68
2021/10/02 04:01:52;;;;;;;;;;;;;;;;;;2104232;27;4711;-68
2021/10/02 04:02:57;;;;;;;;;;;;;;;;;;2104164;27;4690;-68
2021/10/02 04:03:57;;;;;;;;;;;;;;;;;;2103654;27;4800;-69
2021/10/02 04:04:58;;;;;;;;;;;;;;;;;;2102843;27;4034;-68
2021/10/02 04:05:58;;;;;;;;;;;;;;;;;;2104555;27;4446;-69
2021/10/02 04:06:59;;;;;;;;;;;;;;;;;;2104638;27;3564;-69
2021/10/02 04:08:00;;;;;;;;;;;;;;;;;;2104843;27;1097;-68
2021/10/02 04:09:01;;;;;;;;;;;;;;;;;;2101690;27;4700;-69
2021/10/02 04:10:02;;;;;;;;;;;;;;;;;;2103455;27;4490;-69
2021/10/02 04:11:05;;;;;;;;;;;;;;;;;;2105175;27;1311;-69
2021/10/02 04:12:06;;;;;;;;;;;;;;;;;;2103338;27;4827;-67
2021/10/02 04:13:06;;;;;;;;;;;;;;;;;;2104283;27;2401;-69
2021/10/02 04:14:07;;;;;;;;;;;;;;;;;;2102690;27;4875;-68
2021/10/02 04:15:07;;;;;;;;;;;;;;;;;;2102293;27;3132;-67
2021/10/02 04:16:08;;;;;;;;;;;;;;;;;;2104730;27;1072;-68
2021/10/02 04:17:08;;;;;;;;;;;;;;;;;;2104493;27;1093;-69
2021/10/02 04:18:09;;;;;;;;;;;;;;;;;;2104591;27;4399;-69
2021/10/02 04:19:10;;;;;;;;;;;;;;;;;;2101963;27;4876;-68
2021/10/02 04:20:11;;;;;;;;;;;;;;;;;;2103269;27;3133;-67
2021/10/02 04:21:12;;;;;;;;;;;;;;;;;;2105004;27;1138;-69
2021/10/02 04:22:13;;;;;;;;;;;;;;;;;;2104298;27;4408;-68
2021/10/02 04:23:13;;;;;;;;;;;;;;;;;;2104380;27;5052;-67
2021/10/02 04:24:14;;;;;;;;;;;;;;;;;;2104498;27;4467;-67
2021/10/02 04:25:15;;;;;;;;;;;;;;;;;;2102905;27;5057;-68
2021/10/02 04:26:16;;;;;;;;;;;;;;;;;;2103050;27;4874;-68
2021/10/02 04:27:16;;;;;;;;;;;;;;;;;;2104437;27;5112;-68
2021/10/02 04:28:17;;;;;;;;;;;;;;;;;;2104135;27;2715;-67
2021/10/02 04:29:17;;;;;;;;;;;;;;;;;;2102389;27;5055;-69
2021/10/02 04:30:18;;;;;;;;;;;;;;;;;;2104053;27;5063;-69
2021/10/02 04:31:21;;;;;;;;;;;;;;;;;;2103898;27;4657;-67
2021/10/02 04:32:26;;;;;;;;;;;;;;;;;;2102860;27;5255;-67
2021/10/02 04:33:27;;;;;;;;;;;;;;;;;;2103979;27;4527;-67
2021/10/02 04:34:27;;;;;;;;;;;;;;;;;;2104142;27;3300;-69
2021/10/02 04:35:28;;;;;;;;;;;;;;;;;;2104838;27;4807;-69
2021/10/02 04:36:28;;;;;;;;;;;;;;;;;;2103267;27;3701;-68
2021/10/02 04:37:29;;;;;;;;;;;;;;;;;;2103062;27;4661;-68
2021/10/02 04:38:29;;;;;;;;;;;;;;;;;;2103211;27;4210;-69
2021/10/02 04:39:30;;;;;;;;;;;;;;;;;;2102829;27;4891;-68
2021/10/02 04:40:31;;;;;;;;;;;;;;;;;;2103346;27;4231;-68
2021/10/02 04:41:32;;;;;;;;;;;;;;;;;;2103601;27;3959;-68
2021/10/02 04:42:32;;;;;;;;;;;;;;;;;;2103072;27;2705;-69
2021/10/02 04:43:37;;;;;;;;;;;;;;;;;;2102984;27;2581;-68
2021/10/02 04:44:38;;;;;;;;;;;;;;;;;;2105304;27;4479;-67
2021/10/02 04:45:38;;;;;;;;;;;;;;;;;;2103309;27;3923;-68
2021/10/02 04:46:39;;;;;;;;;;;;;;;;;;2106579;27;1193;-68
2021/10/02 04:47:40;;;;;;;;;;;;;;;;;;2105079;27;3401;-68
2021/10/02 04:48:43;;;;;;;;;;;;;;;;;;2103493;27;5019;-67
2021/10/02 04:49:44;;;;;;;;;;;;;;;;;;2104086;27;4897;-69
2021/10/02 04:50:44;;;;;;;;;;;;;;;;;;2104569;27;4230;-67
2021/10/02 04:51:45;;;;;;;;;;;;;;;;;;2104830;27;4126;-68
2021/10/02 04:52:45;;;;;;;;;;;;;;;;;;2105833;27;1184;-69
2021/10/02 04:53:46;;;;;;;;;;;;;;;;;;2098336;27;4416;-68
2021/10/02 04:54:46;;;;;;;;;;;;;;;;;;2099735;27;1616;-69
2021/10/02 04:55:47;;;;;;;;;;;;;;;;;;2098925;28;1166;-68
2021/10/02 04:56:47;;;;;;;;;;;;;;;;;;2099914;28;1157;-67
2021/10/02 04:57:48;;;;;;;;;;;;;;;;;;2100927;27;1057;-68
2021/10/02 04:58:49;;;;;;;;;;;;;;;;;;2098350;28;4833;-69
2021/10/02 04:59:50;;;;;;;;;;;;;;;;;;2098806;28;1263;-69
2021/10/02 05:00:50;;;;;;;;;;;;;;;;;;2099387;27;1138;-69
2021/10/02 05:01:54;;;;;;;;;;;;;;;;;;2099192;27;3097;-68
2021/10/02 05:02:54;;;;;;;;;;;;;;;;;;2099422;27;5395;-68
2021/10/02 05:03:58;;;;;;;;;;;;;;;;;;2098938;27;4968;-67
2021/10/02 05:04:58;;;;;;;;;;;;;;;;;;2099281;27;1164;-68
2021/10/02 05:05:59;;;;;;;;;;;;;;;;;;2099840;27;4836;-68
2021/10/02 05:07:02;;;;;;;;;;;;;;;;;;2099687;28;4418;-68
2021/10/02 05:08:04;;;;;;;;;;;;;;;;;;2099882;28;4184;-67
2021/10/02 05:09:04;;;;;;;;;;;;;;;;;;2097144;28;4825;-69
2021/10/02 05:10:05;;;;;;;;;;;;;;;;;;2098165;27;4291;-68
2021/10/02 05:11:05;;;;;;;;;;;;;;;;;;2099545;27;1413;-68
2021/10/02 05:12:06;;;;;;;;;;;;;;;;;;2099560;27;1149;-68
2021/10/02 05:13:06;;;;;;;;;;;;;;;;;;2099317;27;3669;-67
2021/10/02 05:14:07;;;;;;;;;;;;;;;;;;2098918;28;5027;-68
2021/10/02 05:15:07;;;;;;;;;;;;;;;;;;2099933;27;1103;-68
2021/10/02 05:16:08;;;;;;;;;;;;;;;;;;2100464;27;1987;-68
2021/10/02 05:17:11;;;;;;;;;;;;;;;;;;2099893;28;4395;-68
2021/10/02 05:18:12;;;;;;;;;;;;;;;;;;2100358;27;5221;-67
2021/10/02 05:19:12;;;;;;;;;;;;;;;;;;2101603;28;4553;-69
2021/10/02 05:20:13;;;;;;;;;;;;;;;;;;2104867;28;1277;-68
2021/10/02 05:21:13;;;;;;;;;;;;;;;;;;2101743;27;3924;-69
2021/10/02 05:22:14;;;;;;;;;;;;;;;;;;2100098;27;2449;-67
2021/10/02 05:23:14;;;;;;;;;;;;;;;;;;2100349;27;1156;-69
2021/10/02 05:24:17;;;;;;;;;;;;;;;;;;2099500;27;1104;-67
2021/10/02 05:25:17;;;;;;;;;;;;;;;;;;2099648;27;1128;-68
2021/10/02 05:26:21;;;;;;;;;;;;;;;;;;2099163;27;4299;-68
2021/10/02 05:27:21;;;;;;;;;;;;;;;;;;2101695;28;1114;-68
2021/10/02 05:28:22;;;;;;;;;;;;;;;;;;2098062;27;5078;-67
2021/10/02 05:29:22;;;;;;;;;;;;;;;;;;2098558;28;4479;-68
2021/10/02 05:30:23;;;;;;;;;;;;;;;;;;2098932;28;1444;-69
2021/10/02 05:31:23;;;;;;;;;;;;;;;;;;2100113;27;4657;-68
2021/10/02 05:32:26;;;;;;;;;;;;;;;;;;2099042;27;1147;-68
2021/10/02 05:33:26;;;;;;;;;;;;;;;;;;2100063;27;3731;-67
2021/10/02 05:34:27;;;;;;;;;;;;;;;;;;2097949;27;3720;-69
2021/10/02 05:35:27;;;;;;;;;;;;;;;;;;2098876;27;1180;-69
2021/10/02 05:36:28;;;;;;;;;;;;;;;;;;2098286;28;4459;-69
2021/10/02 05:37:28;;;;;;;;;;;;;;;;;;2099198;27;4276;-67
2021/10/02 05:38:29;;;;;;;;;;;;;;;;;;2098533;28;4146;-68
2021/10/02 05:39:29;;;;;;;;;;;;;;;;;;2098978;28;1324;-69
2021/10/02 05:40:31;;;;;;;;;;;;;;;;;;2099227;28;1264;-68
2021/10/02 05:41:31;;;;;;;;;;;;;;;;;;2098345;27;2554;-67
2021/10/02 05:42:32;;;;;;;;;;;;;;;;;;2098605;27;4571;-67
2021/10/02 05:43:32;;;;;;;;;;;;;;;;;;2098758;27;1288;-68
2021/10/02 05:44:33;;;;;;;;;;;;;;;;;;2098713;27;2928;-68
2021/10/02 05:45:33;;;;;;;;;;;;;;;;;;2098610;28;1178;-69
2021/10/02 05:46:35;;;;;;;;;;;;;;;;;;2098259;28;4298;-68
2021/10/02 05:47:35;;;;;;;;;;;;;;;;;;2098699;28;4170;-67
2021/10/02 05:48:36;;;;;;;;;;;;;;;;;;2096895;27;5233;-67
2021/10/02 05:49:36;;;;;;;;;;;;;;;;;;2098419;27;3856;-68
2021/10/02 05:50:39;;;;;;;;;;;;;;;;;;2097252;28;4188;-68
2021/10/02 05:51:39;;;;;;;;;;;;;;;;;;2098341;27;4739;-68
2021/10/02 05:52:40;;;;;;;;;;;;;;;;;;2098444;28;1023;-68
2021/10/02 05:53:40;;;;;;;;;;;;;;;;;;2098883;27;2499;-68
2021/10/02 05:54:41;;;;;;;;;;;;;;;;;;2098354;27;4623;-68
2021/10/02 05:55:42;;;;;;;;;;;;;;;;;;2098148;28;5144;-67
2021/10/02 05:56:42;;;;;;;;;;;;;;;;;;2097538;28;4468;-69
2021/10/02 05:57:44;;;;;;;;;;;;;;;;;;2097101;28;1493;-67
2021/10/02 05:58:44;;;;;;;;;;;;;;;;;;2097817;28;4262;-69
2021/10/02 05:59:46;;;;;;;;;;;;;;;;;;2098223;28;1216;-69
2021/10/02 06:00:46;;;;;;;;;;;;;;;;;;2097232;28;4875;-68
2021/10/02 06:01:47;;;;;;;;;;;;;;;;;;2098204;27;4853;-67
2021/10/02 06:02:47;;;;;;;;;;;;;;;;;;2098225;28;3742;-67
2021/10/02 06:03:48;;;;;;;;;;;;;;;;;;2098203;27;3456;-68
2021/10/02 06:04:48;;;;;;;;;;;;;;;;;;2097248;28;4109;-68
2021/10/02 06:05:50;;;;;;;;;;;;;;;;;;2097174;28;5426;-68
2021/10/02 06:06:50;;;;;;;;;;;;;;;;;;2098074;27;3964;-68
2021/10/02 06:07:51;;;;;;;;;;;;;;;;;;2097657;27;2919;-69
2021/10/02 06:08:52;;;;;;;;;;;;;;;;;;2096520;28;3718;-67
2021/10/02 06:09:52;;;;;;;;;;;;;;;;;;2096119;28;3786;-69
2021/10/02 06:10:53;;;;;;;;;;;;;;;;;;2097175;28;4454;-68
2021/10/02 06:11:53;;;;;;;;;;;;;;;;;;2099106;27;1161;-69
2021/10/02 06:12:56;;;;;;;;;;;;;;;;;;2098307;28;4325;-67
2021/10/02 06:13:58;;;;;;;;;;;;;;;;;;2098198;28;4351;-68
2021/10/02 06:14:59;;;;;;;;;;;;;;;;;;2098730;27;1383;-67
2021/10/02 06:15:59;;;;;;;;;;;;;;;;;;2097684;28;4880;-68
2021/10/02 06:17:00;;;;;;;;;;;;;;;;;;2097981;27;3359;-69
2021/10/02 06:18:01;;;;;;;;;;;;;;;;;;2098106;28;5176;-68
2021/10/02 06:19:01;;;;;;;;;;;;;;;;;;2097491;28;5916;-69
2021/10/02 06:20:02;;;;;;;;;;;;;;;;;;2096487;28;5334;-69
2021/10/02 06:21:02;;;;;;;;;;;;;;;;;;2097162;28;3946;-69
2021/10/02 06:22:03;;;;;;;;;;;;;;;;;;2098457;27;4524;-68
2021/10/02 06:23:04;;;;;;;;;;;;;;;;;;2097668;28;5355;-69
2021/10/02 06:24:05;;;;;;;;;;;;;;;;;;2098377;28;4283;-67
2021/10/02 06:25:05;;;;;;;;;;;;;;;;;;2097031;27;5551;-68
2021/10/02 06:26:06;;;;;;;;;;;;;;;;;;2098200;27;1960;-68
2021/10/02 06:27:06;;;;;;;;;;;;;;;;;;2097660;27;5267;-67
2021/10/02 06:28:07;;;;;;;;;;;;;;;;;;2098321;27;4452;-67
2021/10/02 06:29:07;;;;;;;;;;;;;;;;;;2098003;27;4504;-68
2021/10/02 06:30:08;;;;;;;;;;;;;;;;;;2099280;27;4546;-69
2021/10/02 06:31:11;;;;;;;;;;;;;;;;;;2098254;28;4952;-68
2021/10/02 06:32:13;;;;;;;;;;;;;;;;;;2098801;27;4417;-69
2021/10/02 06:33:13;;;;;;;;;;;;;;;;;;2098297;27;1072;-68
2021/10/02 06:34:14;;;;;;;;;;;;;;;;;;2098413;28;1067;-69
2021/10/02 06:35:15;;;;;;;;;;;;;;;;;;2098098;28;5148;-68
2021/10/02 06:36:15;;;;;;;;;;;;;;;;;;2097115;27;5802;-67
2021/10/02 06:37:19;;;;;;;;;;;;;;;;;;2098089;28;4569;-68
2021/10/02 06:38:19;;;;;;;;;;;;;;;;;;2096581;28;4292;-69
2021/10/02 06:39:20;;;;;;;;;;;;;;;;;;2096221;28;4747;-67
2021/10/02 06:40:20;;;;;;;;;;;;;;;;;;2096854;28;4228;-69
2021/10/02 06:41:21;;;;;;;;;;;;;;;;;;2097388;28;4540;-69
2021/10/02 06:42:21;;;;;;;;;;;;;;;;;;2096890;27;5203;-67
2021/10/02 06:43:23;;;;;;;;;;;;;;;;;;2096517;28;5080;-69
2021/10/02 06:44:23;;;;;;;;;;;;;;;;;;2099823;28;4845;-67
2021/10/02 06:45:24;;;;;;;;;;;;;;;;;;2096238;28;4077;-67
2021/10/02 06:46:24;;;;;;;;;;;;;;;;;;2097394;28;3481;-68
2021/10/02 06:47:25;;;;;;;;;;;;;;;;;;2097904;28;4652;-69
2021/10/02 06:48:25;;;;;;;;;;;;;;;;;;2095631;28;4765;-67
2021/10/02 06:49:29;;;;;;;;;;;;;;;;;;2099190;27;4828;-67
2021/10/02 06:50:29;;;;;;;;;;;;;;;;;;2097965;28;4826;-67
2021/10/02 06:51:30;;;;;;;;;;;;;;;;;;2096742;27;4703;-67
2021/10/02 06:52:30;;;;;;;;;;;;;;;;;;2098804;28;4923;-68
2021/10/02 06:53:32;;;;;;;;;;;;;;;;;;2099056;27;4647;-68
2021/10/02 06:54:32;;;;;;;;;;;;;;;;;;2098547;28;4639;-67
2021/10/02 06:55:33;;;;;;;;;;;;;;;;;;2097542;28;4669;-67
2021/10/02 06:56:33;;;;;;;;;;;;;;;;;;2097697;28;4467;-67
2021/10/02 06:57:34;;;;;;;;;;;;;;;;;;2097926;28;4779;-67
2021/10/02 06:58:34;;;;;;;;;;;;;;;;;;2096608;27;5091;-67
2021/10/02 06:59:35;;;;;;;;;;;;;;;;;;2097857;28;4486;-68
2021/10/02 07:00:35;;;;;;;;;;;;;;;;;;2096138;28;4891;-68
2021/10/02 07:01:36;;;;;;;;;;;;;;;;;;2098056;28;4845;-68
2021/10/02 07:02:37;;;;;;;;;;;;;;;;;;2100352;28;5000;-68
2021/10/02 07:03:37;;;;;;;;;;;;;;;;;;2096931;28;4821;-69
2021/10/02 07:04:39;;;;;;;;;;;;;;;;;;2096820;28;4494;-69
2021/10/02 07:05:40;;;;;;;;;;;;;;;;;;2099126;28;4069;-68
2021/10/02 07:06:40;;;;;;;;;;;;;;;;;;2097763;28;4135;-68
2021/10/02 07:07:41;;;;;;;;;;;;;;;;;;2099360;28;4477;-68
2021/10/02 07:08:41;;;;;;;;;;;;;;;;;;2097262;28;4663;-68
2021/10/02 07:09:42;;;;;;;;;;;;;;;;;;2098243;28;5102;-68
2021/10/02 07:10:42;;;;;;;;;;;;;;;;;;2097866;28;5475;-68
2021/10/02 07:11:43;;;;;;;;;;;;;;;;;;2098371;28;3857;-67
2021/10/02 07:12:44;;;;;;;;;;;;;;;;;;2097696;28;1695;-69
2021/10/02 07:13:44;;;;;;;;;;;;;;;;;;2097229;28;5234;-68
2021/10/02 07:14:45;;;;;;;;;;;;;;;;;;2097119;27;5074;-68
2021/10/02 07:15:47;;;;;;;;;;;;;;;;;;2097276;27;5134;-68
2021/10/02 07:16:47;;;;;;;;;;;;;;;;;;2096277;28;4662;-68
2021/10/02 07:17:48;;;;;;;;;;;;;;;;;;2096613;28;4907;-68
2021/10/02 07:18:49;;;;;;;;;;;;;;;;;;2096288;27;4510;-69
2021/10/02 07:19:50;;;;;;;;;;;;;;;;;;2096720;28;5158;-68
2021/10/02 07:20:51;;;;;;;;;;;;;;;;;;2096644;28;4196;-68
2021/10/02 07:21:52;;;;;;;;;;;;;;;;;;2095700;28;4793;-67
2021/10/02 07:22:53;;;;;;;;;;;;;;;;;;2097387;28;4466;-67
2021/10/02 07:23:53;;;;;;;;;;;;;;;;;;2096552;27;4541;-69
2021/10/02 07:24:54;;;;;;;;;;;;;;;;;;2096862;28;4272;-69
2021/10/02 07:25:54;;;;;;;;;;;;;;;;;;2094595;28;5905;-67
2021/10/02 07:26:55;;;;;;;;;;;;;;;;;;2095281;28;5200;-69
2021/10/02 07:27:56;;;;;;;;;;;;;;;;;;2096008;28;4700;-69
2021/10/02 07:28:57;;;;;;;;;;;;;;;;;;2096451;28;4696;-68
2021/10/02 07:29:57;;;;;;;;;;;;;;;;;;2096351;28;4128;-69
2021/10/02 07:30:58;;;;;;;;;;;;;;;;;;2097187;28;2253;-68
2021/10/02 07:31:58;;;;;;;;;;;;;;;;;;2096874;28;4191;-69
2021/10/02 07:33:00;;;;;;;;;;;;;;;;;;2097066;28;4808;-69
2021/10/02 07:34:01;;;;;;;;;;;;;;;;;;2094854;28;4609;-68
2021/10/02 07:35:01;;;;;;;;;;;;;;;;;;2096035;28;4403;-68
2021/10/02 07:36:02;;;;;;;;;;;;;;;;;;2095134;28;4927;-67
2021/10/02 07:37:03;;;;;;;;;;;;;;;;;;2095671;28;4843;-69
2021/10/02 07:38:03;;;;;;;;;;;;;;;;;;2096288;28;4823;-68
2021/10/02 07:39:04;;;;;;;;;;;;;;;;;;2096418;28;4618;-67
2021/10/02 07:40:04;;;;;;;;;;;;;;;;;;2096730;28;1349;-68
2021/10/02 07:41:05;;;;;;;;;;;;;;;;;;2096782;28;1118;-68
2021/10/02 07:42:06;;;;;;;;;;;;;;;;;;2096409;28;4816;-67
2021/10/02 07:43:07;;;;;;;;;;;;;;;;;;2095378;28;4789;-67
2021/10/02 07:44:08;;;;;;;;;;;;;;;;;;2096262;28;4413;-68
2021/10/02 07:45:08;;;;;;;;;;;;;;;;;;2095995;28;4427;-69
2021/10/02 07:46:09;;;;;;;;;;;;;;;;;;2096504;28;5161;-68
2021/10/02 07:47:09;;;;;;;;;;;;;;;;;;2097009;28;4491;-67
2021/10/02 07:48:10;;;;;;;;;;;;;;;;;;2097211;28;1076;-68
2021/10/02 07:49:11;;;;;;;;;;;;;;;;;;2094703;28;4740;-68
2021/10/02 07:50:11;;;;;;;;;;;;;;;;;;2095299;28;4751;-67
2021/10/02 07:51:12;;;;;;;;;;;;;;;;;;2096040;28;4781;-67
2021/10/02 07:52:12;;;;;;;;;;;;;;;;;;2097788;28;1198;-68
2021/10/02 07:53:14;;;;;;;;;;;;;;;;;;2097488;28;1149;-67
2021/10/02 07:54:14;;;;;;;;;;;;;;;;;;2095532;28;5713;-68
2021/10/02 07:55:15;;;;;;;;;;;;;;;;;;2095557;28;4591;-68